createdAt,value
2017-08-12T00:01:36.413Z,26.33
2017-08-12T00:04:37.750Z,20.90
2017-08-12T00:07:39.082Z,22.37
2017-08-12T00:10:41.222Z,22.27
2017-08-12T00:13:42.630Z,20.17
2017-08-12T00:16:43.946Z,17.23
2017-08-12T00:19:46.053Z,21.30
2017-08-12T00:22:47.401Z,25.57
2017-08-12T00:25:48.753Z,29.97
2017-08-12T00:28:50.075Z,25.80
2017-08-12T00:31:51.443Z,21.70
2017-08-12T00:34:52.778Z,33.43
2017-08-12T00:37:55.544Z,34.73
2017-08-12T00:40:57.733Z,30.60
2017-08-12T00:43:59.097Z,31.90
2017-08-12T00:47:00.540Z,26.67
2017-08-12T00:50:01.905Z,23.80
2017-08-12T00:53:03.259Z,22.43
2017-08-12T00:56:04.617Z,22.23
2017-08-12T00:59:05.998Z,26.13
2017-08-12T01:02:07.361Z,25.07
2017-08-12T01:05:08.750Z,28.97
2017-08-12T01:08:10.545Z,27.60
2017-08-12T01:11:11.844Z,39.77
2017-08-12T01:14:13.182Z,34.87
2017-08-12T01:17:15.254Z,30.73
2017-08-12T01:20:17.407Z,25.50
2017-08-12T01:23:18.735Z,30.10
2017-08-12T01:26:20.125Z,32.73
2017-08-12T01:29:22.206Z,26.03
2017-08-12T01:32:23.527Z,28.00
2017-08-12T01:35:25.622Z,31.90
2017-08-12T01:38:26.953Z,27.87
2017-08-12T01:41:29.046Z,38.83
2017-08-12T01:44:30.384Z,40.03
2017-08-12T01:47:31.753Z,32.87
2017-08-12T01:50:33.241Z,36.00
2017-08-12T01:53:34.585Z,27.97
2017-08-12T01:56:35.996Z,30.80
2017-08-12T01:59:37.346Z,26.60
2017-08-12T02:02:38.763Z,29.33
2017-08-12T02:05:40.139Z,32.10
2017-08-12T02:08:41.514Z,25.70
2017-08-12T02:11:43.100Z,26.07
2017-08-12T02:14:44.534Z,29.20
2017-08-12T02:17:45.956Z,25.90
2017-08-12T02:20:47.397Z,29.93
2017-08-12T02:23:49.501Z,29.73
2017-08-12T02:26:50.826Z,29.23
2017-08-12T02:29:52.187Z,32.83
2017-08-12T02:32:53.541Z,21.00
2017-08-12T02:35:54.891Z,20.17
2017-08-12T02:38:56.399Z,25.53
2017-08-12T02:41:57.734Z,31.30
2017-08-12T02:44:59.090Z,28.03
2017-08-12T02:48:00.403Z,29.00
2017-08-12T02:51:01.738Z,26.53
2017-08-12T02:54:03.113Z,21.30
2017-08-12T02:57:04.451Z,20.43
2017-08-12T03:00:05.800Z,28.60
2017-08-12T03:03:07.121Z,20.77
2017-08-12T03:06:09.225Z,21.07
2017-08-12T03:09:10.581Z,26.50
2017-08-12T03:12:11.954Z,22.23
2017-08-12T03:15:13.332Z,28.73
2017-08-12T03:18:15.963Z,26.47
2017-08-12T03:21:17.799Z,21.03
2017-08-12T03:24:19.625Z,23.13
2017-08-12T03:27:21.677Z,26.50
2017-08-12T03:30:24.207Z,21.60
2017-08-12T03:33:25.696Z,26.83
2017-08-12T03:36:27.020Z,22.43
2017-08-12T03:39:28.360Z,20.60
2017-08-12T03:42:29.695Z,18.20
2017-08-12T03:45:31.025Z,24.00
2017-08-12T03:48:32.334Z,23.33
2017-08-12T03:51:33.685Z,28.80
2017-08-12T03:54:35.122Z,27.40
2017-08-12T03:57:36.465Z,19.03
2017-08-12T04:00:37.787Z,21.63
2017-08-12T04:03:39.858Z,23.17
2017-08-12T04:06:41.213Z,20.60
2017-08-12T04:09:42.528Z,20.23
2017-08-12T04:12:43.879Z,26.37
2017-08-12T04:15:45.205Z,20.27
2017-08-12T04:18:46.677Z,23.00
2017-08-12T04:21:48.037Z,25.93
2017-08-12T04:24:49.360Z,30.53
2017-08-12T04:27:50.813Z,19.73
2017-08-12T04:30:52.144Z,21.30
2017-08-12T04:33:53.488Z,29.30
2017-08-12T04:36:54.778Z,15.63
2017-08-12T04:39:56.126Z,17.13
2017-08-12T04:42:57.421Z,20.53
2017-08-12T04:45:58.750Z,22.20
2017-08-12T04:49:00.838Z,18.20
2017-08-12T04:52:02.182Z,22.27
2017-08-12T04:55:03.578Z,17.63
2017-08-12T04:58:04.922Z,13.60
2017-08-12T05:01:06.287Z,19.50
2017-08-12T05:04:07.607Z,23.93
2017-08-12T05:07:08.963Z,18.23
2017-08-12T05:10:10.278Z,17.73
2017-08-12T05:13:11.637Z,22.97
2017-08-12T05:16:12.990Z,14.20
2017-08-12T05:19:14.315Z,26.37
2017-08-12T05:22:16.532Z,21.30
2017-08-12T05:25:17.837Z,17.57
2017-08-12T05:28:19.899Z,21.83
2017-08-12T05:31:21.954Z,15.77
2017-08-12T05:34:23.321Z,37.83
2017-08-12T05:37:25.367Z,17.77
2017-08-12T05:40:26.711Z,24.73
2017-08-12T05:43:28.062Z,14.60
2017-08-12T05:46:29.394Z,18.37
2017-08-12T05:49:30.746Z,14.90
2017-08-12T05:52:32.089Z,27.20
2017-08-12T05:55:33.437Z,24.70
2017-08-12T05:58:34.723Z,30.17
2017-08-12T06:01:36.069Z,26.40
2017-08-12T06:04:37.390Z,31.23
2017-08-12T06:07:38.700Z,25.77
2017-08-12T06:10:40.072Z,28.47
2017-08-12T06:13:41.410Z,33.80
2017-08-12T06:16:42.882Z,31.73
2017-08-12T06:19:44.269Z,31.73
2017-08-12T06:22:45.673Z,21.20
2017-08-12T06:25:47.092Z,25.50
2017-08-12T06:28:49.219Z,31.67
2017-08-12T06:31:50.775Z,26.43
2017-08-12T06:34:52.204Z,25.37
2017-08-12T06:37:53.615Z,38.77
2017-08-12T06:40:55.826Z,29.80
2017-08-12T06:43:57.211Z,26.07
2017-08-12T06:46:58.751Z,23.73
2017-08-12T06:50:00.550Z,25.07
2017-08-12T06:53:02.733Z,22.03
2017-08-12T06:56:04.197Z,37.77
2017-08-12T06:59:05.622Z,32.57
2017-08-12T07:02:07.757Z,21.27
2017-08-12T07:05:09.203Z,29.97
2017-08-12T07:08:10.631Z,28.57
2017-08-12T07:11:12.057Z,23.40
2017-08-12T07:14:14.136Z,20.83
2017-08-12T07:17:15.517Z,26.97
2017-08-12T07:20:16.861Z,25.60
2017-08-12T07:23:18.219Z,30.93
2017-08-12T07:26:19.564Z,25.47
2017-08-12T07:29:20.923Z,22.30
2017-08-12T07:32:22.235Z,23.73
2017-08-12T07:35:23.578Z,23.33
2017-08-12T07:38:25.787Z,31.23
2017-08-12T07:41:27.100Z,29.13
2017-08-12T07:44:29.402Z,35.53
2017-08-12T07:47:30.717Z,36.80
2017-08-12T07:50:32.798Z,43.40
2017-08-12T07:53:34.097Z,33.63
2017-08-12T07:56:35.452Z,34.40
2017-08-12T07:59:36.786Z,28.67
2017-08-12T08:02:38.141Z,29.63
2017-08-12T08:05:39.501Z,31.00
2017-08-12T08:08:40.810Z,29.40
2017-08-12T08:11:42.150Z,33.20
2017-08-12T08:14:43.494Z,27.57
2017-08-12T08:17:44.852Z,34.47
2017-08-12T08:20:46.207Z,23.57
2017-08-12T08:23:47.599Z,26.03
2017-08-12T08:26:48.949Z,18.53
2017-08-12T08:29:50.304Z,24.00
2017-08-12T08:32:51.647Z,26.67
2017-08-12T08:35:52.958Z,33.47
2017-08-12T08:38:54.301Z,25.20
2017-08-12T08:41:55.620Z,21.30
2017-08-12T08:44:57.726Z,18.30
2017-08-12T08:47:59.057Z,23.10
2017-08-12T08:51:01.187Z,20.00
2017-08-12T08:54:02.535Z,17.90
2017-08-12T08:57:03.919Z,53.03
2017-08-12T09:00:06.231Z,19.13
2017-08-12T09:03:07.591Z,19.47
2017-08-12T09:06:09.075Z,19.57
2017-08-12T09:09:10.411Z,22.23
2017-08-12T09:12:11.775Z,31.97
2017-08-12T09:15:13.127Z,8.93
2017-08-12T09:18:14.442Z,18.97
2017-08-12T09:21:15.828Z,7.40
2017-08-12T09:24:17.178Z,10.43
2017-08-12T09:27:18.688Z,5.90
2017-08-12T09:30:20.145Z,7.80
2017-08-12T09:33:21.715Z,7.77
2017-08-12T09:36:23.073Z,6.97
2017-08-12T09:39:24.455Z,5.13
2017-08-12T09:42:26.523Z,4.00
2017-08-12T09:45:28.619Z,6.00
2017-08-12T09:48:30.012Z,4.80
2017-08-12T09:51:31.360Z,2.97
2017-08-12T09:54:32.703Z,3.10
2017-08-12T09:57:34.059Z,2.63
2017-08-12T10:00:35.793Z,6.17
2017-08-12T10:03:38.577Z,2.00
2017-08-12T10:06:39.972Z,1.80
2017-08-12T10:09:42.067Z,1.70
2017-08-12T10:12:43.443Z,2.30
2017-08-12T10:15:44.794Z,1.80
2017-08-12T10:18:46.172Z,1.70
2017-08-12T10:21:47.569Z,1.30
2017-08-12T10:24:48.969Z,1.40
2017-08-12T10:27:50.315Z,1.37
2017-08-12T10:30:51.709Z,1.17
2017-08-12T10:33:53.748Z,1.37
2017-08-12T10:36:55.108Z,1.70
2017-08-12T10:39:56.603Z,1.10
2017-08-12T10:42:57.943Z,1.23
2017-08-12T10:45:59.555Z,1.43
2017-08-12T10:49:00.893Z,1.00
2017-08-12T10:52:02.244Z,2.17
2017-08-12T10:55:03.586Z,1.50
2017-08-12T10:58:04.976Z,1.20
2017-08-12T11:01:07.033Z,3.30
2017-08-12T11:04:08.421Z,5.37
2017-08-12T11:07:09.817Z,2.17
2017-08-12T11:10:11.239Z,2.13
2017-08-12T11:13:12.583Z,2.77
2017-08-12T11:16:13.974Z,1.60
2017-08-12T11:19:15.341Z,1.63
2017-08-12T11:22:16.756Z,1.90
2017-08-12T11:25:18.140Z,2.67
2017-08-12T11:28:19.503Z,1.77
2017-08-12T11:31:21.642Z,2.20
2017-08-12T11:34:23.019Z,2.30
2017-08-12T11:37:24.418Z,2.30
2017-08-12T11:40:25.768Z,2.33
2017-08-12T11:43:34.174Z,2.33
2017-08-12T11:46:35.956Z,2.70
2017-08-12T11:49:37.295Z,2.10
2017-08-12T11:52:38.775Z,2.33
2017-08-12T11:55:40.070Z,2.53
2017-08-12T11:58:42.171Z,2.67
2017-08-12T12:01:43.514Z,2.87
2017-08-12T12:04:44.882Z,2.57
2017-08-12T12:07:46.208Z,5.07
2017-08-12T12:10:47.526Z,5.73
2017-08-12T12:13:49.963Z,3.90
2017-08-12T12:16:51.268Z,3.83
2017-08-12T12:19:52.770Z,6.70
2017-08-12T12:22:54.089Z,9.30
2017-08-12T12:25:55.444Z,11.53
2017-08-12T12:28:56.730Z,10.93
2017-08-12T12:31:58.095Z,9.37
2017-08-12T12:34:59.391Z,12.40
2017-08-12T12:38:00.723Z,17.63
2017-08-12T12:41:09.229Z,15.23
2017-08-12T12:44:10.542Z,15.90
2017-08-12T12:47:11.891Z,16.07
2017-08-12T12:50:13.193Z,18.40
2017-08-12T12:53:14.533Z,21.40
2017-08-12T12:56:15.874Z,16.80
2017-08-12T12:59:17.951Z,14.37
2017-08-12T13:02:19.278Z,16.30
2017-08-12T13:05:21.365Z,20.20
2017-08-12T13:08:22.773Z,14.70
2017-08-12T13:11:24.082Z,12.20
2017-08-12T13:14:25.421Z,12.60
2017-08-12T13:17:26.754Z,16.67
2017-08-12T13:20:29.140Z,14.63
2017-08-12T13:23:30.442Z,12.43
2017-08-12T13:26:31.787Z,13.13
2017-08-12T13:29:33.135Z,12.60
2017-08-12T13:32:34.461Z,14.87
2017-08-12T13:35:35.791Z,11.60
2017-08-12T13:38:37.139Z,10.27
2017-08-12T13:41:38.472Z,12.90
2017-08-12T13:44:39.839Z,11.20
2017-08-12T13:47:41.188Z,14.50
2017-08-12T13:50:42.525Z,9.17
2017-08-12T13:53:44.886Z,12.33
2017-08-12T13:56:46.190Z,7.67
2017-08-12T13:59:47.543Z,8.03
2017-08-12T14:02:48.871Z,12.33
2017-08-12T14:05:50.241Z,7.27
2017-08-12T14:08:51.537Z,7.77
2017-08-12T14:11:52.874Z,7.33
2017-08-12T14:14:54.174Z,6.20
2017-08-12T14:17:55.513Z,6.50
2017-08-12T14:20:56.856Z,7.90
2017-08-12T14:23:58.210Z,5.00
2017-08-12T14:26:59.813Z,6.17
2017-08-12T14:30:01.116Z,6.93
2017-08-12T14:33:02.472Z,11.80
2017-08-12T14:36:03.814Z,5.50
2017-08-12T14:39:05.174Z,5.73
2017-08-12T14:42:06.511Z,7.47
2017-08-12T14:45:07.878Z,5.20
2017-08-12T14:48:09.180Z,5.00
2017-08-12T14:51:10.538Z,6.53
2017-08-12T14:54:11.973Z,8.00
2017-08-12T14:57:13.262Z,4.63
2017-08-12T15:00:14.611Z,7.47
2017-08-12T15:03:16.646Z,9.87
2017-08-12T15:06:18.029Z,7.30
2017-08-12T15:09:19.370Z,6.93
2017-08-12T15:12:21.564Z,7.30
2017-08-12T15:15:22.882Z,11.30
2017-08-12T15:18:24.959Z,6.70
2017-08-12T15:21:27.038Z,9.47
2017-08-12T15:24:28.413Z,9.97
2017-08-12T15:27:29.718Z,7.70
2017-08-12T15:30:31.813Z,5.67
2017-08-12T15:33:33.138Z,6.23
2017-08-12T15:36:35.247Z,6.70
2017-08-12T15:39:36.566Z,12.53
2017-08-12T15:42:37.921Z,6.13
2017-08-12T15:45:39.359Z,6.80
2017-08-12T15:48:41.434Z,7.37
2017-08-12T15:51:43.731Z,6.83
2017-08-12T15:54:45.074Z,12.40
2017-08-12T15:57:46.595Z,6.83
2017-08-12T16:00:49.664Z,10.63
2017-08-12T16:03:51.168Z,10.40
2017-08-12T16:06:52.605Z,6.83
2017-08-12T16:09:54.899Z,8.53
2017-08-12T16:12:56.386Z,5.90
2017-08-12T16:15:57.688Z,5.40
2017-08-12T16:18:59.042Z,7.80
2017-08-12T16:22:00.452Z,10.30
2017-08-12T16:25:02.687Z,7.47
2017-08-12T16:28:04.034Z,5.07
2017-08-12T16:31:05.516Z,6.70
2017-08-12T16:34:07.914Z,5.57
2017-08-12T16:37:12.067Z,5.00
2017-08-12T16:40:13.486Z,5.33
2017-08-12T16:43:16.449Z,7.63
2017-08-12T16:46:17.739Z,4.53
2017-08-12T16:49:19.179Z,9.80
2017-08-12T16:52:21.282Z,6.63
2017-08-12T16:55:22.775Z,5.63
2017-08-12T16:58:24.096Z,5.67
2017-08-12T17:01:25.629Z,6.93
2017-08-12T17:04:27.873Z,5.97
2017-08-12T17:07:30.032Z,8.93
2017-08-12T17:10:33.197Z,12.93
2017-08-12T17:13:34.626Z,9.57
2017-08-12T17:16:36.340Z,9.07
2017-08-12T17:19:37.866Z,8.43
2017-08-12T17:22:39.333Z,6.57
2017-08-12T17:25:40.889Z,8.07
2017-08-12T17:28:42.261Z,8.40
2017-08-12T17:31:44.425Z,6.37
2017-08-12T17:34:46.701Z,7.00
2017-08-12T17:37:48.759Z,7.47
2017-08-12T17:40:51.204Z,6.83
2017-08-12T17:43:53.662Z,7.50
2017-08-12T17:46:55.156Z,7.20
2017-08-12T17:49:56.776Z,8.23
2017-08-12T17:52:58.361Z,7.47
2017-08-12T17:55:59.674Z,8.53
2017-08-12T17:59:01.037Z,11.17
2017-08-12T18:02:03.118Z,9.13
2017-08-12T18:05:04.690Z,16.90
2017-08-12T18:08:06.181Z,13.90
2017-08-12T18:11:07.519Z,9.60
2017-08-12T18:14:08.934Z,9.47
2017-08-12T18:17:10.444Z,12.70
2017-08-12T18:20:11.830Z,8.83
2017-08-12T18:23:13.248Z,9.20
2017-08-12T18:26:14.590Z,10.30
2017-08-12T18:29:16.156Z,8.40
2017-08-12T18:32:17.554Z,9.27
2017-08-12T18:35:18.904Z,10.60
2017-08-12T18:38:20.223Z,16.90
2017-08-12T18:41:22.334Z,13.93
2017-08-12T18:44:23.709Z,10.43
2017-08-12T18:47:25.051Z,11.20
2017-08-12T18:50:26.703Z,14.30
2017-08-12T18:53:28.038Z,11.13
2017-08-12T18:56:29.506Z,13.23
2017-08-12T18:59:30.818Z,16.03
2017-08-12T19:02:32.167Z,14.80
2017-08-12T19:05:33.571Z,13.97
2017-08-12T19:08:34.911Z,16.33
2017-08-12T19:11:36.275Z,14.93
2017-08-12T19:14:37.666Z,15.80
2017-08-12T19:17:38.978Z,15.70
2017-08-12T19:20:40.313Z,13.07
2017-08-12T19:23:41.657Z,13.23
2017-08-12T19:26:43.001Z,14.53
2017-08-12T19:29:44.411Z,16.30
2017-08-12T19:32:45.710Z,14.13
2017-08-12T19:35:47.069Z,16.73
2017-08-12T19:38:48.370Z,16.40
2017-08-12T19:41:49.730Z,20.93
2017-08-12T19:44:51.043Z,14.57
2017-08-12T19:47:53.133Z,14.27
2017-08-12T19:50:54.468Z,13.97
2017-08-12T19:53:56.571Z,9.73
2017-08-12T19:56:57.901Z,11.90
2017-08-12T19:59:59.222Z,10.53
2017-08-12T20:03:01.342Z,11.33
2017-08-12T20:06:02.678Z,15.33
2017-08-12T20:09:04.059Z,8.93
2017-08-12T20:12:05.375Z,7.47
2017-08-12T20:15:06.710Z,6.27
2017-08-12T20:18:08.007Z,7.40
2017-08-12T20:21:09.364Z,8.60
2017-08-12T20:24:10.740Z,7.17
2017-08-12T20:27:12.068Z,7.00
2017-08-12T20:30:13.394Z,12.20
2017-08-12T20:33:14.784Z,4.60
2017-08-12T20:36:16.128Z,5.57
2017-08-12T20:39:17.477Z,4.10
2017-08-12T20:42:18.918Z,7.10
2017-08-12T20:45:20.411Z,7.60
2017-08-12T20:48:22.530Z,4.50
2017-08-12T20:51:23.897Z,4.03
2017-08-12T20:54:25.223Z,5.80
2017-08-12T20:57:26.570Z,6.33
2017-08-12T21:00:27.930Z,4.87
2017-08-12T21:03:29.272Z,4.53
2017-08-12T21:06:30.569Z,5.80
2017-08-12T21:09:32.714Z,5.00
2017-08-12T21:12:34.038Z,5.20
2017-08-12T21:15:35.382Z,5.23
2017-08-12T21:18:36.703Z,7.67
2017-08-12T21:21:38.066Z,20.73
2017-08-12T21:24:39.673Z,10.10
2017-08-12T21:27:41.916Z,6.10
2017-08-12T21:30:43.252Z,10.07
2017-08-12T21:33:44.743Z,10.03
2017-08-12T21:36:46.297Z,7.60
2017-08-12T21:39:48.508Z,7.87
2017-08-12T21:42:50.457Z,8.70
2017-08-12T21:45:51.825Z,15.70
2017-08-12T21:48:53.304Z,20.03
2017-08-12T21:51:54.609Z,18.23
2017-08-12T21:54:56.738Z,10.70
2017-08-12T21:57:58.075Z,10.50
2017-08-12T22:00:59.731Z,11.30
2017-08-12T22:04:01.758Z,10.73
2017-08-12T22:07:03.196Z,9.40
2017-08-12T22:10:04.536Z,8.87
2017-08-12T22:13:06.252Z,8.83
2017-08-12T22:16:08.072Z,8.50
2017-08-12T22:19:10.165Z,10.70
2017-08-12T22:22:11.505Z,8.67
2017-08-12T22:25:12.870Z,9.37
2017-08-12T22:28:14.458Z,9.20
2017-08-12T22:31:15.790Z,9.80
2017-08-12T22:34:17.186Z,12.33
2017-08-12T22:37:18.868Z,8.43
2017-08-12T22:40:20.274Z,9.53
2017-08-12T22:43:22.034Z,8.30
2017-08-12T22:46:23.428Z,11.63
2017-08-12T22:49:25.583Z,8.87
2017-08-12T22:52:26.999Z,13.23
2017-08-12T22:55:29.027Z,8.00
2017-08-12T22:58:30.434Z,12.93
2017-08-12T23:01:31.979Z,19.83
2017-08-12T23:04:33.342Z,10.33
2017-08-12T23:07:34.714Z,8.30
2017-08-12T23:10:36.098Z,7.83
2017-08-12T23:13:37.537Z,17.43
2017-08-12T23:16:38.905Z,16.77
2017-08-12T23:19:40.301Z,14.53
2017-08-12T23:22:41.724Z,19.63
2017-08-12T23:25:43.079Z,8.97
2017-08-12T23:28:44.517Z,9.10
2017-08-12T23:31:45.855Z,8.57
2017-08-12T23:34:47.197Z,7.10
2017-08-12T23:37:48.603Z,7.60
2017-08-12T23:40:50.354Z,11.63
2017-08-12T23:43:51.689Z,7.10
2017-08-12T23:46:53.052Z,10.20
2017-08-12T23:49:54.405Z,6.80
2017-08-12T23:52:55.773Z,6.27
2017-08-12T23:55:57.859Z,10.23
2017-08-12T23:58:59.938Z,11.07
